Terminal Aerodrome Forecast
Issued by NWS

Current Version | Previous Version | Text Only | Print | Product List | Glossary On
Versions: 1 2 3 4 5 6 7 8 9 10 11 12 13 14 15 16 17 18 19 20 21 22 23
000
FTUS41 KBOX 110833 AAA
TAFACK
TAF AMD
KACK 110833Z 1109/1206 00000KT P6SM OVC015
     FM111300 13006KT P6SM VCSH OVC008
     FM111500 12006KT 6SM -SHRA BR OVC012
     FM112100 12008KT 4SM -SHRA BR OVC007
     FM120200 09007KT 2SM BR VCSH BKN008=

USA.gov is the U.S. government's official web portal to all federal, state and local government web resources and services.